Time;durP1;ratioP1;P1;durP2;ratioP2;P2;SDS_P1;SDS_P2;PMS_P1;PMS_P2;Temp;Humidity;BMP_temperature;BMP_pressure;BME280_temperature;BME280_humidity;BME280_pressure;Samples;Min_cycle;Max_cycle;Signal;HPM_P1;HPM_P2
2022/05/23 00:00:30;;;;;;;1.75;1.07;;;;;;;18.94;40.61;100811.14;1666172;84;21712;-45
2022/05/23 00:02:57;;;;;;;1.20;1.07;;;;;;;18.92;40.70;100819.61;1681034;85;21048;-46
2022/05/23 00:05:25;;;;;;;2.87;1.20;;;;;;;18.87;40.72;100816.39;1680426;85;21052;-48
2022/05/23 00:07:54;;;;;;;3.55;1.20;;;;;;;18.85;40.57;100820.89;1680563;85;21047;-49
2022/05/23 00:10:22;;;;;;;1.20;1.10;;;;;;;18.83;40.62;100818.81;1692803;83;21565;-48
2022/05/23 00:12:49;;;;;;;3.85;1.20;;;;;;;18.78;40.61;100824.78;1653812;85;21506;-48
2022/05/23 00:15:18;;;;;;;1.70;1.20;;;;;;;18.76;40.68;100821.84;1674518;84;21027;-48
2022/05/23 00:17:45;;;;;;;1.40;1.27;;;;;;;18.73;40.70;100824.66;1672258;84;21479;-49
2022/05/23 00:20:15;;;;;;;1.75;1.20;;;;;;;18.69;40.63;100830.58;1686402;84;21025;-49
2022/05/23 00:22:42;;;;;;;1.30;1.20;;;;;;;18.63;40.70;100815.92;1686385;83;21044;-50
2022/05/23 00:25:09;;;;;;;1.52;1.20;;;;;;;18.59;40.80;100825.38;1688374;84;21570;-48
2022/05/23 00:27:39;;;;;;;1.05;0.98;;;;;;;18.54;40.84;100828.29;1682803;84;21080;-45
2022/05/23 00:30:10;;;;;;;1.20;1.10;;;;;;;18.50;40.94;100825.44;1661831;85;21510;-47
2022/05/23 00:35:22;;;;;;;1.70;1.15;;;;;;;18.40;41.12;100824.16;1679156;84;21008;-46
2022/05/23 00:37:53;;;;;;;1.72;1.50;;;;;;;18.36;41.20;100824.42;1676101;84;21058;-45
2022/05/23 00:40:45;;;;;;;0.90;0.90;;;;;;;18.33;41.34;100818.84;1665132;85;21551;-49
2022/05/23 00:43:23;;;;;;;0.95;0.95;;;;;;;18.29;41.55;100821.71;1659910;84;21057;-47
2022/05/23 00:45:54;;;;;;;1.10;0.95;;;;;;;18.26;41.77;100827.98;1661521;84;21105;-45
2022/05/23 00:48:25;;;;;;;2.37;1.30;;;;;;;18.23;41.87;100823.34;1612157;87;21550;-49
2022/05/23 00:50:59;;;;;;;2.83;1.40;;;;;;;18.21;41.82;100825.21;1650791;86;21066;-46
2022/05/23 00:53:37;;;;;;;1.92;1.30;;;;;;;18.19;41.87;100821.81;1609873;87;21564;-49
2022/05/23 00:56:08;;;;;;;1.55;1.20;;;;;;;18.16;41.88;100821.95;1631666;87;21068;-48
2022/05/23 00:58:43;;;;;;;2.60;1.00;;;;;;;18.14;41.86;100823.81;1609101;87;21084;-49
2022/05/23 01:03:39;;;;;;;1.47;1.35;;;;;;;18.09;41.72;100829.34;1508584;91;21124;-50
2022/05/23 01:06:07;;;;;;;1.85;1.17;;;;;;;18.05;41.77;100826.48;1502311;93;21134;-49
2022/05/23 01:08:38;;;;;;;1.32;1.22;;;;;;;18.01;41.83;100822.77;1524554;92;21708;-45
2022/05/23 01:11:06;;;;;;;1.55;1.45;;;;;;;17.98;41.88;100822.91;1471283;94;21254;-48
2022/05/23 01:13:34;;;;;;;1.30;1.20;;;;;;;17.95;41.93;100821.77;1507353;94;21527;-49
2022/05/23 01:16:01;;;;;;;2.10;0.95;;;;;;;17.91;42.04;100816.27;1505154;94;21124;-48
2022/05/23 01:18:31;;;;;;;1.45;1.10;;;;;;;17.85;42.13;100810.37;1493350;94;21129;-46
2022/05/23 01:21:01;;;;;;;1.00;1.00;;;;;;;17.81;42.23;100814.08;1510562;93;21214;-49
2022/05/23 01:23:52;;;;;;;1.65;1.15;;;;;;;17.78;42.43;100816.86;1490561;94;21178;-49
2022/05/23 01:26:26;;;;;;;1.10;0.98;;;;;;;17.74;42.54;100817.94;1398963;101;21153;-45
2022/05/23 01:28:56;;;;;;;1.15;1.00;;;;;;;17.72;42.79;100820.28;1401403;101;21381;-45
2022/05/23 01:31:41;;;;;;;1.82;1.10;;;;;;;17.70;42.88;100824.77;1340620;106;21172;-51
2022/05/23 01:34:10;;;;;;;1.12;0.98;;;;;;;17.66;42.84;100817.47;1338004;106;21652;-48
2022/05/23 01:36:39;;;;;;;1.35;1.10;;;;;;;17.64;42.78;100824.59;1338331;105;21176;-49
2022/05/23 01:39:05;;;;;;;1.37;1.00;;;;;;;17.62;42.75;100823.81;1342531;105;21668;-46
2022/05/23 01:41:32;;;;;;;2.90;1.30;;;;;;;17.58;42.88;100826.21;1337170;106;21160;-47
2022/05/23 01:44:00;;;;;;;1.35;1.10;;;;;;;17.57;42.88;100829.78;1299103;107;21190;-50
2022/05/23 01:46:29;;;;;;;1.65;1.12;;;;;;;17.53;42.94;100824.29;1289368;110;21279;-47
2022/05/23 01:49:01;;;;;;;1.30;1.17;;;;;;;17.51;42.97;100822.66;1325748;106;21179;-45
2022/05/23 01:51:28;;;;;;;1.27;1.10;;;;;;;17.49;43.09;100824.47;1349228;104;21670;-49
2022/05/23 01:53:55;;;;;;;2.17;1.20;;;;;;;17.44;43.16;100824.69;1370390;103;21116;-48
2022/05/23 01:56:22;;;;;;;1.30;1.20;;;;;;;17.41;43.36;100818.28;1336770;105;21605;-49
2022/05/23 02:01:39;;;;;;;1.55;1.30;;;;;;;17.36;43.59;100823.36;1337565;105;21184;-49
2022/05/23 02:04:06;;;;;;;1.57;1.32;;;;;;;17.35;43.76;100823.81;1329321;106;21257;-48
2022/05/23 02:06:40;;;;;;;0.93;0.90;;;;;;;17.34;43.95;100826.07;1338488;106;21216;-45
2022/05/23 02:09:09;;;;;;;1.27;1.00;;;;;;;17.33;44.01;100819.09;1352408;105;21222;-49
2022/05/23 02:11:37;;;;;;;2.47;1.02;;;;;;;17.31;44.18;100814.37;1352527;105;21682;-47
2022/05/23 02:14:04;;;;;;;2.08;1.42;;;;;;;17.31;44.25;100818.31;1383261;100;21202;-48
2022/05/23 02:16:34;;;;;;;6.70;1.22;;;;;;;17.31;44.39;100814.37;1423157;100;21730;-48
2022/05/23 02:19:01;;;;;;;3.08;1.00;;;;;;;17.32;44.41;100811.28;1417445;100;21318;-50
2022/05/23 02:21:29;;;;;;;0.90;0.90;;;;;;;17.34;44.48;100805.02;1405038;101;21142;-46
2022/05/23 02:23:56;;;;;;;4.85;1.30;;;;;;;17.37;44.58;100807.48;1437515;98;21172;-52
2022/05/23 02:26:23;;;;;;;4.92;2.52;;;;;;;17.40;44.64;100806.05;1449830;97;21139;-50
2022/05/23 02:28:53;;;;;;;1.47;1.12;;;;;;;17.44;44.62;100801.02;1435001;98;21181;-48
2022/05/23 02:31:21;;;;;;;2.72;1.20;;;;;;;17.48;44.45;100798.63;1407750;101;21147;-47
2022/05/23 02:34:05;;;;;;;1.47;1.00;;;;;;;17.52;44.26;100803.30;1411321;99;21161;-48
2022/05/23 02:36:39;;;;;;;12.82;1.82;;;;;;;17.54;44.15;100798.34;1420281;98;21121;-48
2022/05/23 02:39:07;;;;;;;3.08;1.00;;;;;;;17.56;44.04;100800.44;1421009;100;21137;-45
2022/05/23 02:41:35;;;;;;;3.47;1.20;;;;;;;17.57;43.93;100803.94;1418979;99;21166;-48
2022/05/23 02:44:04;;;;;;;1.50;1.40;;;;;;;17.58;43.92;100803.84;1450960;95;21140;-48
2022/05/23 02:46:31;;;;;;;2.77;1.20;;;;;;;17.59;43.88;100804.70;1480695;95;21136;-46
2022/05/23 02:49:00;;;;;;;1.10;1.00;;;;;;;17.60;43.97;100808.57;1464953;96;21161;-48
2022/05/23 02:51:28;;;;;;;2.60;1.10;;;;;;;17.60;43.99;100804.62;1480099;95;21648;-47
2022/05/23 02:53:56;;;;;;;1.20;1.10;;;;;;;17.63;44.00;100804.48;1472272;95;21656;-49
2022/05/23 02:56:25;;;;;;;1.07;0.98;;;;;;;17.64;44.09;100807.48;1458255;96;21214;-50
2022/05/23 02:58:52;;;;;;;1.92;0.98;;;;;;;17.66;44.16;100803.00;1472548;96;21084;-47
2022/05/23 03:01:19;;;;;;;2.50;1.07;;;;;;;17.68;44.02;100807.72;1479271;95;21141;-48
2022/05/23 03:03:48;;;;;;;0.90;0.90;;;;;;;17.70;43.92;100807.18;1540732;91;21149;-49
2022/05/23 03:06:15;;;;;;;1.35;1.25;;;;;;;17.73;43.72;100803.09;1552524;91;21587;-49
2022/05/23 03:08:43;;;;;;;1.00;0.88;;;;;;;17.73;43.58;100796.52;1588885;86;21521;-50
2022/05/23 03:11:10;;;;;;;2.50;1.10;;;;;;;17.76;43.62;100804.73;1605829;87;21026;-47
2022/05/23 03:13:36;;;;;;;1.17;0.85;;;;;;;17.77;43.50;100802.01;1654117;84;21548;-48
2022/05/23 03:16:11;;;;;;;1.42;0.95;;;;;;;17.80;43.52;100807.10;1679747;84;22532;-50
2022/05/23 03:18:40;;;;;;;1.40;1.30;;;;;;;17.83;43.46;100806.96;1664464;85;21532;-47
2022/05/23 03:21:10;;;;;;;1.17;1.07;;;;;;;17.87;43.36;100808.97;1668723;84;21041;-50
2022/05/23 03:29:12;;;;;;;2.08;1.02;;;;;;;17.92;43.41;100815.31;1664606;84;21060;-52
2022/05/23 03:31:39;;;;;;;1.22;0.90;;;;;;;17.92;43.59;100820.13;1690485;84;21081;-50
2022/05/23 03:34:07;;;;;;;1.12;1.02;;;;;;;17.95;43.73;100820.44;1651290;85;21068;-48
2022/05/23 03:36:34;;;;;;;4.12;1.10;;;;;;;17.99;43.81;100812.28;1701128;83;21053;-50
2022/05/23 03:39:03;;;;;;;2.45;1.20;;;;;;;18.05;43.74;100811.14;1669906;84;21085;-50
2022/05/23 03:41:30;;;;;;;1.22;1.10;;;;;;;18.12;43.62;100812.51;1636501;85;21572;-50
2022/05/23 03:43:58;;;;;;;2.08;1.10;;;;;;;18.21;43.50;100819.48;1666791;84;21155;-50
2022/05/23 03:46:25;;;;;;;1.35;1.20;;;;;;;18.30;43.40;100816.84;1664770;85;21552;-47
2022/05/23 03:48:52;;;;;;;1.42;1.32;;;;;;;18.37;43.26;100819.52;1650641;84;21046;-47
2022/05/23 03:51:20;;;;;;;2.92;1.30;;;;;;;18.46;43.37;100819.08;1663260;83;21052;-47
2022/05/23 03:53:48;;;;;;;2.65;1.40;;;;;;;18.58;43.12;100815.79;1664566;84;21074;-51
2022/05/23 03:56:15;;;;;;;2.58;1.25;;;;;;;18.69;42.88;100822.67;1672383;84;21469;-45
2022/05/23 03:58:46;;;;;;;1.22;1.12;;;;;;;18.77;42.66;100817.83;1647513;84;21007;-53
2022/05/23 04:01:25;;;;;;;1.27;1.17;;;;;;;18.86;42.54;100827.85;1682959;84;21040;-50
2022/05/23 04:03:57;;;;;;;1.67;0.98;;;;;;;18.92;42.32;100827.52;1694802;83;21517;-47
2022/05/23 04:06:24;;;;;;;1.67;1.10;;;;;;;18.97;42.17;100823.31;1697925;84;21026;-47
2022/05/23 04:08:55;;;;;;;3.75;1.40;;;;;;;18.99;42.14;100823.63;1559128;90;21584;-48
2022/05/23 04:11:22;;;;;;;1.00;1.00;;;;;;;19.01;42.16;100823.06;1574747;89;21262;-49
2022/05/23 04:13:49;;;;;;;1.65;1.32;;;;;;;19.01;42.07;100821.75;1592764;89;21070;-51
2022/05/23 04:16:15;;;;;;;1.45;1.20;;;;;;;19.01;42.02;100821.75;1588010;88;21128;-47
2022/05/23 04:18:44;;;;;;;1.20;1.10;;;;;;;19.01;42.16;100830.13;1602120;88;22546;-50
2022/05/23 04:21:11;;;;;;;1.47;1.00;;;;;;;19.01;42.38;100828.80;1578981;88;21050;-47
2022/05/23 04:23:40;;;;;;;1.50;0.95;;;;;;;19.02;42.43;100832.66;1592449;88;21502;-50
2022/05/23 04:26:08;;;;;;;1.17;1.07;;;;;;;19.00;42.64;100828.44;1589076;90;21081;-50
2022/05/23 04:28:39;;;;;;;3.08;1.20;;;;;;;19.01;42.73;100829.66;1588914;89;21082;-48
2022/05/23 04:31:06;;;;;;;1.12;0.90;;;;;;;19.02;42.82;100828.70;1597777;88;21626;-50
2022/05/23 04:36:24;;;;;;;2.33;1.20;;;;;;;19.07;42.54;100825.36;1532674;92;21622;-47
2022/05/23 04:38:51;;;;;;;1.37;0.90;;;;;;;19.11;42.31;100822.94;1539513;92;21090;-45
2022/05/23 04:41:19;;;;;;;1.67;1.00;;;;;;;19.16;42.23;100820.91;1531706;92;21063;-51
2022/05/23 04:43:48;;;;;;;1.80;0.90;;;;;;;19.22;42.24;100831.11;1486414;95;21598;-50
2022/05/23 04:46:16;;;;;;;1.52;1.35;;;;;;;19.23;42.03;100820.92;1506581;95;21571;-46
2022/05/23 04:51:31;;;;;;;2.37;1.20;;;;;;;19.35;42.13;100831.31;1445192;98;21135;-47
2022/05/23 04:53:59;;;;;;;2.77;1.67;;;;;;;19.45;42.16;100825.89;1449582;96;21136;-50
2022/05/23 04:56:27;;;;;;;4.05;1.00;;;;;;;19.53;41.89;100832.04;1445493;98;21156;-51
2022/05/23 04:58:56;;;;;;;1.12;1.02;;;;;;;19.58;41.94;100832.14;1428300;98;21147;-46
2022/05/23 05:01:22;;;;;;;1.15;1.00;;;;;;;19.66;41.60;100834.37;1404997;99;21636;-49
2022/05/23 05:03:53;;;;;;;3.85;0.98;;;;;;;19.72;41.38;100839.29;1418357;99;21189;-50
2022/05/23 05:06:22;;;;;;;1.20;1.10;;;;;;;19.76;41.29;100842.13;1488184;94;21189;-50
2022/05/23 05:08:49;;;;;;;1.35;1.00;;;;;;;19.82;41.03;100845.73;1485611;95;21612;-49
2022/05/23 05:11:16;;;;;;;1.62;1.20;;;;;;;19.87;41.02;100837.05;1503080;92;21181;-51
2022/05/23 05:13:45;;;;;;;3.27;1.17;;;;;;;19.96;41.13;100836.53;1522921;91;21100;-51
2022/05/23 05:16:13;;;;;;;3.98;2.12;;;;;;;20.15;40.78;100835.83;1528739;91;21108;-49
2022/05/23 05:18:40;;;;;;;1.72;1.15;;;;;;;20.35;40.80;100830.22;1529780;92;21117;-48
2022/05/23 05:21:11;;;;;;;1.60;0.80;;;;;;;20.52;40.70;100826.08;1557194;89;21057;-49
2022/05/23 05:23:57;;;;;;;1.50;1.22;;;;;;;20.74;40.31;100822.94;1588615;89;21518;-50
2022/05/23 05:26:29;;;;;;;2.33;1.17;;;;;;;20.92;40.14;100825.28;1580579;89;21081;-49
2022/05/23 05:28:55;;;;;;;1.72;1.25;;;;;;;21.00;39.77;100826.96;1575428;89;21036;-46
2022/05/23 05:31:38;;;;;;;1.95;1.30;;;;;;;21.00;39.37;100822.14;1570942;90;21114;-49
2022/05/23 05:34:13;;;;;;;1.17;0.90;;;;;;;20.90;39.81;100827.17;1568767;90;21117;-49
2022/05/23 05:36:44;;;;;;;3.47;1.30;;;;;;;20.90;39.81;100827.17;1565828;89;21077;-49
2022/05/23 05:39:10;;;;;;;1.92;0.70;;;;;;;20.87;40.04;100826.06;1569729;90;21065;-47
2022/05/23 05:41:55;;;;;;;2.15;1.50;;;;;;;20.86;40.20;100829.63;1567724;89;21106;-50
2022/05/23 05:44:24;;;;;;;1.67;1.10;;;;;;;20.83;40.09;100835.14;1567372;90;21184;-46
2022/05/23 05:46:54;;;;;;;0.93;0.80;;;;;;;20.81;40.71;100827.73;1579597;89;21593;-47
2022/05/23 05:49:27;;;;;;;1.57;1.07;;;;;;;20.80;40.85;100835.31;1579769;90;21144;-49
2022/05/23 05:52:00;;;;;;;3.00;1.00;;;;;;;20.77;40.46;100834.16;1588223;87;21102;-49
2022/05/23 05:54:31;;;;;;;4.15;1.10;;;;;;;20.74;40.70;100837.02;1613977;87;21243;-47
2022/05/23 05:57:05;;;;;;;1.35;1.12;;;;;;;20.73;40.62;100831.84;1649622;85;21017;-47
2022/05/23 05:59:32;;;;;;;5.10;1.17;;;;;;;20.74;40.76;100832.20;1648145;86;21191;-49
2022/05/23 06:01:59;;;;;;;1.62;1.40;;;;;;;20.82;40.62;100832.09;1615384;86;21537;-49
2022/05/23 06:04:27;;;;;;;2.98;1.00;;;;;;;20.88;40.37;100826.42;1656338;86;21109;-49
2022/05/23 06:12:31;;;;;;;4.15;1.27;;;;;;;21.20;40.35;100819.59;1634141;85;21092;-46
2022/05/23 06:14:59;;;;;;;2.45;0.95;;;;;;;21.40;39.94;100815.17;1632881;85;21110;-48
2022/05/23 06:17:26;;;;;;;1.20;1.00;;;;;;;21.59;39.52;100816.99;1632980;86;21062;-52
2022/05/23 06:19:55;;;;;;;1.32;1.22;;;;;;;21.81;39.33;100815.92;1627572;85;21074;-49
2022/05/23 06:22:26;;;;;;;1.37;1.10;;;;;;;22.11;38.79;100811.25;1628309;86;21081;-50
2022/05/23 06:24:58;;;;;;;2.25;1.20;;;;;;;22.42;38.33;100805.50;1625577;86;21134;-49
2022/05/23 06:27:24;;;;;;;2.52;1.42;;;;;;;22.66;37.75;100795.02;1619777;86;21578;-48
2022/05/23 06:30:09;;;;;;;4.05;1.57;;;;;;;22.78;37.71;100797.27;1629098;85;21546;-49
2022/05/23 06:32:56;;;;;;;2.35;1.10;;;;;;;22.75;37.24;100796.18;1677147;84;21101;-49
2022/05/23 06:35:28;;;;;;;3.02;1.45;;;;;;;22.59;36.51;100791.95;1624434;88;21115;-50
2022/05/23 06:37:55;;;;;;;1.65;0.90;;;;;;;22.49;36.85;100790.88;1623978;88;21098;-48
2022/05/23 06:40:35;;;;;;;1.77;1.32;;;;;;;22.47;36.82;100786.16;1597902;90;21075;-46
2022/05/23 06:43:05;;;;;;;1.50;1.10;;;;;;;22.51;36.79;100787.64;1551165;91;21147;-50
2022/05/23 06:45:37;;;;;;;1.35;1.10;;;;;;;22.51;36.72;100782.80;1510071;92;21548;-47
2022/05/23 06:48:23;;;;;;;3.52;1.02;;;;;;;22.48;36.86;100786.52;1505307;91;21113;-48
2022/05/23 06:50:52;;;;;;;1.07;0.85;;;;;;;22.53;37.26;100787.05;1507749;93;21100;-47
2022/05/23 06:53:22;;;;;;;4.03;0.88;;;;;;;22.60;37.31;100785.70;1501347;93;21103;-51
2022/05/23 06:56:03;;;;;;;1.45;1.10;;;;;;;22.72;36.89;100783.12;1504766;94;21108;-50
2022/05/23 06:58:30;;;;;;;3.12;1.00;;;;;;;22.79;37.16;100779.94;1496816;94;21504;-49
2022/05/23 07:00:57;;;;;;;1.20;0.90;;;;;;;22.86;37.08;100785.63;1506240;94;21199;-49
2022/05/23 07:03:28;;;;;;;1.70;0.98;;;;;;;22.87;36.83;100779.37;1477461;95;21655;-50
2022/05/23 07:14:24;;;;;;;0.85;0.70;;;;;;;23.18;36.58;100790.80;1466264;97;21130;-51
2022/05/23 07:16:53;;;;;;;1.55;0.90;;;;;;;23.26;36.38;100791.08;1470477;96;21094;-50
2022/05/23 07:19:21;;;;;;;1.85;1.10;;;;;;;23.37;36.40;100787.16;1487630;95;21112;-49
2022/05/23 07:21:59;;;;;;;1.35;0.93;;;;;;;23.43;36.55;100794.70;1500579;94;21121;-46
2022/05/23 07:24:27;;;;;;;1.50;0.90;;;;;;;23.47;36.25;100796.17;1569359;89;21076;-51
2022/05/23 07:26:56;;;;;;;1.10;0.90;;;;;;;23.46;36.44;100794.45;1570036;90;21084;-46
2022/05/23 07:29:24;;;;;;;1.00;0.75;;;;;;;23.45;36.42;100792.78;1572884;90;21625;-46
2022/05/23 07:31:52;;;;;;;1.95;1.00;;;;;;;23.43;36.55;100789.39;1571292;88;21605;-48
2022/05/23 07:34:19;;;;;;;1.92;1.25;;;;;;;23.37;36.26;100787.16;1577644;89;21151;-49
2022/05/23 07:36:48;;;;;;;1.12;0.90;;;;;;;23.30;36.31;100793.88;1581477;89;21032;-46
2022/05/23 07:39:15;;;;;;;2.50;0.90;;;;;;;23.19;36.36;100785.36;1575193;88;21169;-45
2022/05/23 07:41:44;;;;;;;2.77;0.90;;;;;;;23.10;36.37;100789.18;1591244;88;21570;-48
2022/05/23 07:44:11;;;;;;;1.75;1.20;;;;;;;23.01;36.34;100789.84;1584297;88;21135;-49
2022/05/23 07:46:40;;;;;;;1.85;0.90;;;;;;;22.87;36.56;100787.34;1579064;88;21072;-47
2022/05/23 07:49:07;;;;;;;2.20;0.80;;;;;;;22.73;36.93;100782.18;1573325;89;21086;-46
2022/05/23 07:51:35;;;;;;;1.70;0.98;;;;;;;22.62;37.38;100783.80;1603593;88;21073;-49
2022/05/23 08:02:42;;;;;;;1.47;0.72;;;;;;;22.50;36.91;100773.17;1590629;89;21594;-49
2022/05/23 08:05:12;;;;;;;2.67;1.10;;;;;;;22.41;37.15;100787.06;1582552;89;21090;-48
2022/05/23 08:07:42;;;;;;;2.37;1.25;;;;;;;22.35;37.57;100784.84;1583710;89;21074;-49
2022/05/23 08:10:11;;;;;;;1.22;1.00;;;;;;;22.32;37.87;100779.27;1597078;86;21069;-46
2022/05/23 08:12:38;;;;;;;2.05;1.17;;;;;;;22.30;38.58;100782.50;1689558;84;21604;-48
2022/05/23 08:15:09;;;;;;;3.37;0.88;;;;;;;22.33;38.40;100774.34;1685782;84;21074;-47
2022/05/23 08:17:36;;;;;;;2.15;0.90;;;;;;;22.38;37.65;100774.86;1690294;84;21498;-50
2022/05/23 08:20:07;;;;;;;0.75;0.75;;;;;;;22.35;37.43;100772.44;1675688;85;21556;-48
2022/05/23 08:22:35;;;;;;;1.45;0.60;;;;;;;22.36;37.56;100775.95;1689485;84;21048;-46
2022/05/23 08:25:05;;;;;;;0.80;0.80;;;;;;;22.37;37.53;100775.83;1638006;86;21034;-48
2022/05/23 08:27:34;;;;;;;0.93;0.82;;;;;;;22.38;37.72;100776.69;1703180;84;21059;-48
2022/05/23 08:30:03;;;;;;;1.15;0.78;;;;;;;22.41;38.05;100773.33;1672382;85;21033;-49
2022/05/23 08:32:30;;;;;;;3.90;1.10;;;;;;;22.45;37.96;100776.14;1657667;85;21015;-47
2022/05/23 08:35:08;;;;;;;3.05;0.93;;;;;;;22.51;37.58;100778.36;1663621;85;21099;-47
2022/05/23 08:37:36;;;;;;;3.95;1.10;;;;;;;22.59;37.91;100770.73;1678144;83;21061;-46
2022/05/23 08:40:06;;;;;;;0.93;0.70;;;;;;;22.67;37.80;100782.62;1680307;84;21513;-48
2022/05/23 08:42:55;;;;;;;2.12;0.65;;;;;;;22.71;37.53;100784.09;1690486;84;21032;-48
2022/05/23 08:45:34;;;;;;;3.75;1.00;;;;;;;22.72;37.36;100777.81;1670845;84;21148;-48
2022/05/23 08:48:22;;;;;;;1.47;0.80;;;;;;;22.73;37.42;100779.53;1674117;84;21056;-46
2022/05/23 08:51:15;;;;;;;2.40;0.70;;;;;;;22.73;37.53;100778.20;1659221;84;21072;-46
2022/05/23 08:54:21;;;;;;;1.00;0.70;;;;;;;22.74;38.22;100778.55;1617900;87;21030;-48
2022/05/23 08:56:57;;;;;;;0.80;0.80;;;;;;;22.77;37.91;100775.69;1595045;88;21152;-46
2022/05/23 08:59:31;;;;;;;1.90;1.00;;;;;;;22.78;38.15;100778.70;1606075;88;21164;-50
2022/05/23 09:02:07;;;;;;;0.98;0.50;;;;;;;22.80;37.57;100775.45;1592811;89;21122;-48
2022/05/23 09:04:59;;;;;;;0.80;0.80;;;;;;;22.75;37.26;100773.63;1590448;88;21096;-49
2022/05/23 09:07:47;;;;;;;1.98;0.80;;;;;;;22.75;37.34;100777.61;1614538;87;21144;-46
2022/05/23 09:10:22;;;;;;;1.40;0.70;;;;;;;22.78;36.75;100773.39;1626517;87;21083;-47
2022/05/23 09:12:52;;;;;;;0.75;0.60;;;;;;;22.79;37.09;100777.76;1632590;87;21072;-48
2022/05/23 09:15:21;;;;;;;0.62;0.62;;;;;;;22.79;36.61;100779.08;1570362;91;21278;-49
2022/05/23 09:17:54;;;;;;;1.30;0.78;;;;;;;22.79;36.62;100779.08;1600393;88;21069;-49
2022/05/23 09:20:49;;;;;;;1.10;0.53;;;;;;;22.78;37.00;100777.38;1506976;93;21148;-46
2022/05/23 09:23:35;;;;;;;0.60;0.60;;;;;;;22.77;37.14;100775.69;1535531;92;21141;-50
2022/05/23 09:26:11;;;;;;;0.70;0.70;;;;;;;22.77;37.28;100777.02;1546852;91;21671;-47
2022/05/23 09:28:38;;;;;;;1.20;0.50;;;;;;;22.84;37.65;100769.83;1510601;93;21103;-45
2022/05/23 09:31:31;;;;;;;1.05;0.85;;;;;;;22.90;37.36;100781.32;1549637;91;21749;-50
2022/05/23 09:34:00;;;;;;;2.00;0.98;;;;;;;22.95;37.18;100784.98;1524510;93;21081;-49
2022/05/23 09:36:37;;;;;;;4.22;0.60;;;;;;;22.93;36.61;100778.94;1519752;93;21111;-48
2022/05/23 09:39:09;;;;;;;0.82;0.60;;;;;;;22.91;37.56;100781.70;1523429;92;21094;-49
2022/05/23 09:49:58;;;;;;;2.22;0.62;;;;;;;23.00;36.70;100781.02;1522741;92;21111;-49
2022/05/23 09:52:31;;;;;;;2.77;1.47;;;;;;;23.06;36.80;100784.55;1497217;93;21136;-48
2022/05/23 09:55:02;;;;;;;3.12;0.88;;;;;;;23.05;36.46;100781.55;1522406;92;21136;-48
2022/05/23 09:57:39;;;;;;;0.80;0.80;;;;;;;23.00;36.57;100790.81;1467902;96;21137;-49
2022/05/23 10:00:14;;;;;;;0.85;0.72;;;;;;;22.98;37.10;100788.75;1424862;99;21079;-49
2022/05/23 10:02:55;;;;;;;0.70;0.70;;;;;;;22.94;36.77;100791.23;1416390;100;21152;-49
2022/05/23 10:05:33;;;;;;;5.50;1.15;;;;;;;22.91;37.01;100786.16;1425265;99;21907;-47
2022/05/23 10:08:11;;;;;;;1.42;0.60;;;;;;;22.91;37.25;100789.66;1414849;100;21188;-47
2022/05/23 10:10:41;;;;;;;1.20;0.80;;;;;;;22.97;37.43;100791.02;1375550;102;21592;-49
2022/05/23 10:13:31;;;;;;;1.65;0.70;;;;;;;22.99;37.54;100786.45;1385608;100;21192;-49
2022/05/23 10:16:00;;;;;;;1.65;0.70;;;;;;;22.99;37.45;100789.10;1380589;102;21216;-48
2022/05/23 10:18:30;;;;;;;2.30;0.80;;;;;;;23.04;37.35;100792.28;1393714;102;21256;-48
2022/05/23 10:20:59;;;;;;;1.60;1.02;;;;;;;23.07;37.62;100786.73;1376856;102;21173;-49
2022/05/23 10:23:33;;;;;;;0.95;0.70;;;;;;;23.16;37.47;100786.08;1421306;99;21618;-46
2022/05/23 10:26:18;;;;;;;0.65;0.65;;;;;;;23.25;36.90;100785.38;1410898;100;21152;-48
2022/05/23 10:28:49;;;;;;;0.78;0.78;;;;;;;23.30;36.91;100784.58;1442594;98;21083;-49
2022/05/23 10:31:23;;;;;;;1.02;0.70;;;;;;;23.28;36.56;100779.39;1444269;98;21094;-49
2022/05/23 10:34:12;;;;;;;0.93;0.80;;;;;;;23.29;36.74;100776.23;1445326;98;21208;-45
2022/05/23 10:36:41;;;;;;;2.75;0.82;;;;;;;23.35;36.75;100777.13;1442630;98;21187;-48
2022/05/23 10:42:23;;;;;;;1.10;0.82;;;;;;;23.43;36.81;100773.45;1449269;98;21198;-48
2022/05/23 10:45:25;;;;;;;1.55;1.30;;;;;;;23.41;36.75;100778.03;1419528;98;21660;-46
2022/05/23 10:48:11;;;;;;;1.37;0.60;;;;;;;23.30;36.72;100774.81;1429030;98;21176;-49
2022/05/23 10:51:14;;;;;;;2.22;1.10;;;;;;;23.20;37.48;100763.66;1397658;100;21149;-48
2022/05/23 10:54:06;;;;;;;1.62;0.65;;;;;;;23.15;37.43;100763.13;1422418;96;21177;-48
2022/05/23 10:56:57;;;;;;;0.88;0.60;;;;;;;23.06;37.14;100771.78;1480120;95;21097;-48
2022/05/23 10:59:53;;;;;;;2.08;0.78;;;;;;;23.01;37.61;100768.61;1465831;97;21092;-48
2022/05/23 11:02:44;;;;;;;0.82;0.82;;;;;;;22.98;37.52;100772.83;1476804;96;21076;-50
2022/05/23 11:05:26;;;;;;;1.85;0.78;;;;;;;22.91;37.17;100775.07;1475836;96;21096;-46
2022/05/23 11:08:25;;;;;;;0.65;0.60;;;;;;;22.83;37.75;100776.58;1530174;90;21643;-48
2022/05/23 11:11:04;;;;;;;2.15;1.17;;;;;;;22.82;38.03;100776.19;1558161;90;21121;-49
2022/05/23 11:13:58;;;;;;;4.80;0.93;;;;;;;22.82;38.28;100781.50;1558615;91;21088;-49
2022/05/23 11:16:57;;;;;;;1.05;0.70;;;;;;;22.84;38.60;100787.07;1528413;92;21150;-49
2022/05/23 11:19:42;;;;;;;1.60;1.32;;;;;;;22.90;38.32;100784.45;1555154;91;21165;-47
2022/05/23 11:22:17;;;;;;;1.12;0.70;;;;;;;22.94;37.87;100788.57;1546396;91;21099;-48
2022/05/23 11:24:56;;;;;;;1.27;0.47;;;;;;;22.97;38.12;100779.08;1535608;93;21209;-48
2022/05/23 11:36:09;;;;;;;2.42;0.50;;;;;;;23.22;36.81;100775.01;1591698;89;21009;-46
2022/05/23 11:38:45;;;;;;;1.32;0.68;;;;;;;23.26;36.63;100781.78;1575282;89;21109;-47
2022/05/23 11:41:32;;;;;;;0.80;0.62;;;;;;;23.30;36.77;100777.94;1491694;96;21092;-48
2022/05/23 11:44:01;;;;;;;1.50;0.90;;;;;;;23.32;36.86;100785.34;1439330;97;21132;-48
2022/05/23 11:47:05;;;;;;;1.42;0.80;;;;;;;23.33;37.25;100776.41;1418931;98;21056;-48
2022/05/23 11:49:41;;;;;;;0.72;0.70;;;;;;;23.36;37.72;100781.50;1401776;101;21117;-48
2022/05/23 11:52:32;;;;;;;0.82;0.65;;;;;;;23.40;37.50;100780.31;1383879;102;21143;-46
2022/05/23 11:54:59;;;;;;;1.10;0.70;;;;;;;23.42;37.56;100790.34;1386091;101;21704;-49
2022/05/23 11:57:36;;;;;;;0.72;0.60;;;;;;;23.47;37.22;100782.89;1381166;102;21132;-51
2022/05/23 12:00:26;;;;;;;0.70;0.70;;;;;;;23.44;37.12;100781.30;1397512;101;21197;-49
2022/05/23 12:03:13;;;;;;;4.30;0.90;;;;;;;23.39;37.21;100787.42;1404452;100;21156;-49
2022/05/23 12:05:39;;;;;;;2.00;0.80;;;;;;;23.36;37.86;100785.48;1364701;103;21149;-46
2022/05/23 12:08:30;;;;;;;3.90;0.70;;;;;;;23.39;38.08;100785.23;1407511;100;21152;-48
2022/05/23 12:10:59;;;;;;;0.75;0.70;;;;;;;23.41;37.65;100786.00;1395759;102;21159;-49
2022/05/23 12:13:35;;;;;;;1.95;1.30;;;;;;;23.42;37.29;100783.22;1388614;101;21146;-47
2022/05/23 12:16:28;;;;;;;1.10;1.00;;;;;;;23.48;37.55;100787.22;1391872;102;21151;-47
2022/05/23 12:19:26;;;;;;;0.70;0.70;;;;;;;23.56;37.64;100783.51;1377476;102;21183;-49
2022/05/23 12:21:55;;;;;;;1.32;1.00;;;;;;;23.63;37.75;100783.43;1365544;102;21120;-49
2022/05/23 12:24:27;;;;;;;1.32;0.70;;;;;;;23.72;37.75;100782.72;1367178;102;21655;-47
2022/05/23 12:26:56;;;;;;;1.17;0.80;;;;;;;23.83;37.24;100777.45;1393706;102;21159;-50
2022/05/23 12:29:35;;;;;;;1.12;0.90;;;;;;;23.92;37.22;100778.09;1359667;105;21146;-50
2022/05/23 12:32:24;;;;;;;0.70;0.70;;;;;;;23.99;37.22;100776.63;1361663;105;21199;-49
2022/05/23 12:34:54;;;;;;;1.42;0.80;;;;;;;24.02;37.17;100779.07;1381083;102;21597;-49
2022/05/23 12:37:38;;;;;;;0.70;0.70;;;;;;;23.99;37.07;100785.08;1372133;104;21195;-51
2022/05/23 12:40:16;;;;;;;1.85;0.70;;;;;;;23.99;36.98;100784.61;1417819;99;21687;-47
2022/05/23 12:43:25;;;;;;;1.55;0.88;;;;;;;24.01;36.37;100784.48;1469603;96;21081;-49
2022/05/23 12:46:09;;;;;;;0.88;0.70;;;;;;;24.00;36.61;100782.33;1461001;96;21076;-48
2022/05/23 12:49:35;;;;;;;0.90;0.70;;;;;;;23.94;37.56;100784.12;1443630;98;21079;-49
2022/05/23 12:52:20;;;;;;;1.15;0.75;;;;;;;23.92;37.12;100778.56;1462774;96;21192;-48
2022/05/23 12:55:01;;;;;;;2.80;0.85;;;;;;;23.93;36.82;100775.78;1453060;97;21105;-49